SWA4045 KPHX-KLAS
Flight info
| Callsign | SWA4045 |
|---|---|
| Flight time | 0h 47m |
| Altitude | 28000 |
| Route | ZEPER2 RRSTA ELLDA RKSTR4 |
| Aircraft | B738/M-SDE2E3FGHIRWXY/LB1 |
Departure
| Time | 2026-05-06 22:44 |
|---|---|
| Airport | Phoenix Sky Harbor International Airport (KPHX) |
Arrival
| Time | 2026-05-06 23:31 |
|---|---|
| Airport | Harry Reid International Airport (KLAS) |
| Time | Latitude | Longitude | Altitude | Speed | Heading |
|---|---|---|---|---|---|
| 2026-05-06 22:24 | 33.43338 | -111.99895 | 1124 ft | 0 kts | 4° |
| 2026-05-06 22:31 | 33.43333 | -111.99896 | 1124 ft | 3 kts | 4° |
| 2026-05-06 22:31 | 33.43314 | -111.99897 | 1117 ft | 3 kts | 4° |
| 2026-05-06 22:31 | 33.43298 | -111.99904 | 1116 ft | 2 kts | 52° |
| 2026-05-06 22:31 | 33.43283 | -111.99914 | 1114 ft | 3 kts | 348° |
| 2026-05-06 22:32 | 33.43271 | -111.99908 | 1116 ft | 0 kts | 300° |
| 2026-05-06 22:33 | 33.43273 | -111.99913 | 1116 ft | 2 kts | 299° |
| 2026-05-06 22:33 | 33.43281 | -111.99942 | 1123 ft | 5 kts | 279° |
| 2026-05-06 22:33 | 33.43282 | -112.00001 | 1119 ft | 8 kts | 270° |
| 2026-05-06 22:33 | 33.43283 | -112.00073 | 1119 ft | 9 kts | 270° |
| 2026-05-06 22:34 | 33.43283 | -112.00143 | 1119 ft | 8 kts | 269° |
| 2026-05-06 22:34 | 33.43283 | -112.00211 | 1119 ft | 8 kts | 269° |
| 2026-05-06 22:34 | 33.43282 | -112.00280 | 1119 ft | 9 kts | 269° |
| 2026-05-06 22:34 | 33.43289 | -112.00357 | 1116 ft | 10 kts | 302° |
| 2026-05-06 22:35 | 33.43350 | -112.00380 | 1120 ft | 9 kts | 358° |
| 2026-05-06 22:35 | 33.43414 | -112.00381 | 1124 ft | 9 kts | 359° |
| 2026-05-06 22:35 | 33.43477 | -112.00381 | 1122 ft | 9 kts | 1° |
| 2026-05-06 22:35 | 33.43538 | -112.00380 | 1118 ft | 9 kts | 1° |
| 2026-05-06 22:36 | 33.43602 | -112.00379 | 1123 ft | 9 kts | 0° |
| 2026-05-06 22:36 | 33.43668 | -112.00380 | 1120 ft | 9 kts | 359° |
| 2026-05-06 22:36 | 33.43732 | -112.00380 | 1120 ft | 9 kts | 360° |
| 2026-05-06 22:36 | 33.43795 | -112.00381 | 1122 ft | 9 kts | 359° |
| 2026-05-06 22:37 | 33.43855 | -112.00381 | 1118 ft | 9 kts | 359° |
| 2026-05-06 22:37 | 33.43901 | -112.00345 | 1124 ft | 9 kts | 72° |
| 2026-05-06 22:37 | 33.43905 | -112.00273 | 1124 ft | 9 kts | 89° |
| 2026-05-06 22:37 | 33.43905 | -112.00200 | 1124 ft | 9 kts | 90° |
| 2026-05-06 22:38 | 33.43905 | -112.00129 | 1124 ft | 8 kts | 90° |
| 2026-05-06 22:38 | 33.43905 | -112.00060 | 1124 ft | 8 kts | 90° |
| 2026-05-06 22:38 | 33.43905 | -111.99984 | 1124 ft | 11 kts | 90° |
| 2026-05-06 22:38 | 33.43905 | -111.99882 | 1124 ft | 13 kts | 90° |
| 2026-05-06 22:39 | 33.43906 | -111.99775 | 1125 ft | 13 kts | 90° |
| 2026-05-06 22:39 | 33.43904 | -111.99670 | 1125 ft | 12 kts | 91° |
| 2026-05-06 22:39 | 33.43903 | -111.99569 | 1125 ft | 12 kts | 91° |
| 2026-05-06 22:39 | 33.43902 | -111.99471 | 1125 ft | 12 kts | 89° |
| 2026-05-06 22:40 | 33.43903 | -111.99374 | 1125 ft | 11 kts | 89° |
| 2026-05-06 22:40 | 33.43904 | -111.99281 | 1125 ft | 11 kts | 89° |
| 2026-05-06 22:40 | 33.43951 | -111.99219 | 1116 ft | 11 kts | 28° |
| 2026-05-06 22:40 | 33.43979 | -111.99140 | 1121 ft | 10 kts | 74° |
| 2026-05-06 22:41 | 33.44004 | -111.99118 | 1117 ft | 0 kts | 3° |
| 2026-05-06 22:42 | 33.44010 | -111.99118 | 1123 ft | 2 kts | 2° |
| 2026-05-06 22:43 | 33.44042 | -111.99119 | 1123 ft | 7 kts | 353° |
| 2026-05-06 22:43 | 33.44081 | -111.99165 | 1135 ft | 9 kts | 276° |
| 2026-05-06 22:43 | 33.44083 | -111.99387 | 1134 ft | 59 kts | 270° |
| 2026-05-06 22:43 | 33.44083 | -112.00163 | 1130 ft | 125 kts | 270° |
| 2026-05-06 22:44 | 33.44085 | -112.01426 | 1198 ft | 172 kts | 270° |
| 2026-05-06 22:44 | 33.44077 | -112.02864 | 1973 ft | 169 kts | 268° |
| 2026-05-06 22:44 | 33.44084 | -112.04262 | 2809 ft | 169 kts | 272° |
| 2026-05-06 22:44 | 33.44134 | -112.05764 | 3173 ft | 196 kts | 272° |
| 2026-05-06 22:45 | 33.44193 | -112.07487 | 3504 ft | 215 kts | 271° |
| 2026-05-06 22:45 | 33.44232 | -112.09293 | 4121 ft | 220 kts | 271° |
| 2026-05-06 22:45 | 33.44278 | -112.11228 | 4479 ft | 241 kts | 272° |
| 2026-05-06 22:45 | 33.44331 | -112.13247 | 5227 ft | 244 kts | 272° |
| 2026-05-06 22:46 | 33.44387 | -112.15297 | 5953 ft | 248 kts | 272° |
| 2026-05-06 22:46 | 33.44690 | -112.17319 | 6709 ft | 249 kts | 296° |
| 2026-05-06 22:46 | 33.45781 | -112.18896 | 7427 ft | 249 kts | 327° |
| 2026-05-06 22:46 | 33.47381 | -112.19643 | 8157 ft | 250 kts | 353° |
| 2026-05-06 22:47 | 33.49115 | -112.19736 | 8945 ft | 249 kts | 1° |
| 2026-05-06 22:47 | 33.50840 | -112.19694 | 9802 ft | 247 kts | 2° |
| 2026-05-06 22:47 | 33.52565 | -112.19647 | 10507 ft | 250 kts | 3° |
| 2026-05-06 22:47 | 33.54348 | -112.19660 | 10910 ft | 267 kts | 358° |
| 2026-05-06 22:48 | 33.56286 | -112.19837 | 11090 ft | 292 kts | 356° |
| 2026-05-06 22:48 | 33.58364 | -112.20045 | 11260 ft | 315 kts | 356° |
| 2026-05-06 22:48 | 33.60622 | -112.20260 | 11483 ft | 334 kts | 357° |
| 2026-05-06 22:48 | 33.62966 | -112.20508 | 12054 ft | 342 kts | 353° |
| 2026-05-06 22:49 | 33.65317 | -112.21102 | 12697 ft | 348 kts | 347° |
| 2026-05-06 22:49 | 33.67667 | -112.21883 | 13373 ft | 353 kts | 346° |
| 2026-05-06 22:49 | 33.70032 | -112.22710 | 14183 ft | 351 kts | 346° |
| 2026-05-06 22:49 | 33.72378 | -112.23524 | 14935 ft | 354 kts | 346° |
| 2026-05-06 22:50 | 33.74770 | -112.24334 | 15537 ft | 360 kts | 346° |
| 2026-05-06 22:50 | 33.77196 | -112.25139 | 16137 ft | 365 kts | 346° |
| 2026-05-06 22:50 | 33.79659 | -112.25945 | 16787 ft | 368 kts | 347° |
| 2026-05-06 22:50 | 33.82146 | -112.26753 | 17441 ft | 373 kts | 346° |
| 2026-05-06 22:51 | 33.84668 | -112.27570 | 18095 ft | 377 kts | 347° |
| 2026-05-06 22:51 | 33.86383 | -112.28125 | 18493 ft | 380 kts | 346° |
| 2026-05-06 22:51 | 33.88947 | -112.28954 | 19063 ft | 383 kts | 347° |
| 2026-05-06 22:51 | 33.91525 | -112.29790 | 19668 ft | 385 kts | 347° |
| 2026-05-06 22:52 | 33.94125 | -112.30632 | 20259 ft | 388 kts | 347° |
| 2026-05-06 22:52 | 33.96740 | -112.31480 | 20821 ft | 391 kts | 347° |
| 2026-05-06 22:52 | 33.99379 | -112.32336 | 21373 ft | 394 kts | 347° |
| 2026-05-06 22:52 | 34.01993 | -112.33242 | 21905 ft | 399 kts | 342° |
| 2026-05-06 22:53 | 34.04440 | -112.34953 | 22438 ft | 408 kts | 324° |
| 2026-05-06 22:53 | 34.06620 | -112.37158 | 23013 ft | 411 kts | 323° |
| 2026-05-06 22:53 | 34.08780 | -112.39371 | 23469 ft | 415 kts | 323° |
| 2026-05-06 22:53 | 34.10988 | -112.41632 | 23918 ft | 418 kts | 323° |
| 2026-05-06 22:54 | 34.13212 | -112.43899 | 24367 ft | 419 kts | 323° |
| 2026-05-06 22:54 | 34.15448 | -112.46168 | 24862 ft | 420 kts | 323° |
| 2026-05-06 22:54 | 34.17680 | -112.48425 | 25445 ft | 418 kts | 324° |
| 2026-05-06 22:54 | 34.19902 | -112.50670 | 26012 ft | 416 kts | 324° |
| 2026-05-06 22:55 | 34.22118 | -112.52907 | 26601 ft | 414 kts | 324° |
| 2026-05-06 22:55 | 34.24328 | -112.55138 | 27167 ft | 413 kts | 324° |
| 2026-05-06 22:55 | 34.26531 | -112.57362 | 27714 ft | 412 kts | 325° |
| 2026-05-06 22:55 | 34.28737 | -112.59590 | 27971 ft | 416 kts | 325° |
| 2026-05-06 22:56 | 34.30959 | -112.61835 | 27965 ft | 416 kts | 325° |
| 2026-05-06 22:56 | 34.33164 | -112.64069 | 27967 ft | 412 kts | 325° |
| 2026-05-06 22:56 | 34.35354 | -112.66289 | 27968 ft | 411 kts | 325° |
| 2026-05-06 22:56 | 34.37550 | -112.68514 | 27975 ft | 411 kts | 325° |
| 2026-05-06 22:57 | 34.39745 | -112.70740 | 27978 ft | 412 kts | 325° |
| 2026-05-06 22:57 | 34.41941 | -112.72969 | 27981 ft | 412 kts | 325° |
| 2026-05-06 22:57 | 34.44138 | -112.75200 | 27976 ft | 413 kts | 325° |
| 2026-05-06 22:57 | 34.45435 | -112.76518 | 27974 ft | 413 kts | 325° |
| 2026-05-06 23:01 | 34.46282 | -112.77379 | 27973 ft | 413 kts | 325° |
| 2026-05-06 23:01 | 34.48482 | -112.79618 | 27977 ft | 413 kts | 325° |
| 2026-05-06 23:01 | 34.50682 | -112.81859 | 27977 ft | 413 kts | 325° |
| 2026-05-06 23:02 | 34.52884 | -112.84102 | 27968 ft | 413 kts | 325° |
| 2026-05-06 23:02 | 34.55082 | -112.86343 | 27955 ft | 413 kts | 325° |
| 2026-05-06 23:02 | 34.57280 | -112.88585 | 27967 ft | 412 kts | 325° |
| 2026-05-06 23:02 | 34.59472 | -112.90823 | 27969 ft | 412 kts | 325° |
| 2026-05-06 23:03 | 34.61668 | -112.93065 | 27971 ft | 412 kts | 325° |
| 2026-05-06 23:03 | 34.63859 | -112.95305 | 27964 ft | 412 kts | 325° |
| 2026-05-06 23:03 | 34.66053 | -112.97550 | 27965 ft | 412 kts | 325° |
| 2026-05-06 23:03 | 34.68245 | -112.99794 | 27965 ft | 412 kts | 325° |
| 2026-05-06 23:04 | 34.70432 | -113.02036 | 27959 ft | 412 kts | 325° |
| 2026-05-06 23:04 | 34.72619 | -113.04278 | 27958 ft | 411 kts | 325° |
| 2026-05-06 23:04 | 34.74807 | -113.06523 | 27969 ft | 411 kts | 325° |
| 2026-05-06 23:04 | 34.76945 | -113.08829 | 27954 ft | 413 kts | 321° |
| 2026-05-06 23:05 | 34.78956 | -113.11323 | 27940 ft | 413 kts | 319° |
| 2026-05-06 23:05 | 34.80914 | -113.13884 | 27943 ft | 413 kts | 318° |
| 2026-05-06 23:05 | 34.82862 | -113.16453 | 27958 ft | 413 kts | 318° |
| 2026-05-06 23:05 | 34.84818 | -113.19008 | 27960 ft | 413 kts | 318° |
| 2026-05-06 23:06 | 34.86788 | -113.21553 | 27948 ft | 413 kts | 319° |
| 2026-05-06 23:06 | 34.88765 | -113.24089 | 27944 ft | 413 kts | 319° |
| 2026-05-06 23:06 | 34.90749 | -113.26623 | 27942 ft | 413 kts | 319° |
| 2026-05-06 23:06 | 34.92735 | -113.29158 | 27961 ft | 414 kts | 319° |
| 2026-05-06 23:07 | 34.94722 | -113.31696 | 27945 ft | 414 kts | 319° |
| 2026-05-06 23:07 | 34.96705 | -113.34231 | 27953 ft | 413 kts | 319° |
| 2026-05-06 23:07 | 34.98684 | -113.36764 | 27934 ft | 412 kts | 319° |
| 2026-05-06 23:07 | 35.00739 | -113.39180 | 27941 ft | 409 kts | 324° |
| 2026-05-06 23:08 | 35.02912 | -113.41394 | 27933 ft | 407 kts | 326° |
| 2026-05-06 23:08 | 35.05126 | -113.43543 | 27922 ft | 406 kts | 327° |
| 2026-05-06 23:08 | 35.07340 | -113.45683 | 27939 ft | 406 kts | 326° |
| 2026-05-06 23:08 | 35.09543 | -113.47838 | 27929 ft | 403 kts | 326° |
| 2026-05-06 23:09 | 35.11691 | -113.49971 | 27922 ft | 393 kts | 326° |
| 2026-05-06 23:09 | 35.13789 | -113.52074 | 27916 ft | 386 kts | 326° |
| 2026-05-06 23:09 | 35.15343 | -113.53641 | 27915 ft | 376 kts | 326° |
| 2026-05-06 23:09 | 35.17318 | -113.55636 | 27944 ft | 362 kts | 326° |
| 2026-05-06 23:10 | 35.19247 | -113.57584 | 27528 ft | 362 kts | 326° |
| 2026-05-06 23:10 | 35.21231 | -113.59578 | 26573 ft | 376 kts | 325° |
| 2026-05-06 23:10 | 35.23265 | -113.61628 | 25999 ft | 379 kts | 325° |
| 2026-05-06 23:10 | 35.25256 | -113.63648 | 26021 ft | 366 kts | 325° |
| 2026-05-06 23:11 | 35.27196 | -113.65616 | 25763 ft | 361 kts | 325° |
| 2026-05-06 23:11 | 35.29151 | -113.67594 | 25202 ft | 367 kts | 325° |
| 2026-05-06 23:11 | 35.31127 | -113.69594 | 24661 ft | 370 kts | 324° |
| 2026-05-06 23:11 | 35.33105 | -113.71599 | 24303 ft | 368 kts | 324° |
| 2026-05-06 23:12 | 35.35064 | -113.73589 | 24003 ft | 364 kts | 324° |
| 2026-05-06 23:12 | 35.37007 | -113.75565 | 23636 ft | 362 kts | 324° |
| 2026-05-06 23:12 | 35.38939 | -113.77529 | 23225 ft | 360 kts | 324° |
| 2026-05-06 23:12 | 35.40836 | -113.79458 | 22826 ft | 358 kts | 324° |
| 2026-05-06 23:13 | 35.42771 | -113.81428 | 22429 ft | 355 kts | 324° |
| 2026-05-06 23:13 | 35.44667 | -113.83359 | 22034 ft | 353 kts | 324° |
| 2026-05-06 23:13 | 35.46524 | -113.85253 | 21655 ft | 351 kts | 324° |
| 2026-05-06 23:13 | 35.48397 | -113.87163 | 21253 ft | 349 kts | 324° |
| 2026-05-06 23:14 | 35.50257 | -113.89061 | 20860 ft | 347 kts | 324° |
| 2026-05-06 23:14 | 35.52106 | -113.90950 | 20500 ft | 344 kts | 324° |
| 2026-05-06 23:14 | 35.53939 | -113.92824 | 20134 ft | 342 kts | 324° |
| 2026-05-06 23:14 | 35.55762 | -113.94688 | 19742 ft | 340 kts | 323° |
| 2026-05-06 23:15 | 35.57576 | -113.96544 | 19382 ft | 339 kts | 323° |
| 2026-05-06 23:15 | 35.59381 | -113.98392 | 19023 ft | 337 kts | 323° |
| 2026-05-06 23:15 | 35.61175 | -114.00230 | 18659 ft | 335 kts | 323° |
| 2026-05-06 23:15 | 35.62960 | -114.02060 | 18320 ft | 333 kts | 323° |
| 2026-05-06 23:16 | 35.64738 | -114.03884 | 17938 ft | 332 kts | 323° |
| 2026-05-06 23:16 | 35.66503 | -114.05696 | 17559 ft | 330 kts | 323° |
| 2026-05-06 23:16 | 35.68258 | -114.07499 | 17168 ft | 328 kts | 324° |
| 2026-05-06 23:16 | 35.70003 | -114.09293 | 16810 ft | 326 kts | 324° |
| 2026-05-06 23:17 | 35.71737 | -114.11074 | 16446 ft | 324 kts | 324° |
| 2026-05-06 23:17 | 35.73458 | -114.12845 | 16051 ft | 321 kts | 324° |
| 2026-05-06 23:17 | 35.75156 | -114.14600 | 15695 ft | 316 kts | 322° |
| 2026-05-06 23:17 | 35.76549 | -114.16672 | 15431 ft | 316 kts | 304° |
| 2026-05-06 23:18 | 35.77589 | -114.19038 | 15105 ft | 313 kts | 302° |
| 2026-05-06 23:18 | 35.78602 | -114.21411 | 14679 ft | 313 kts | 302° |
| 2026-05-06 23:18 | 35.79619 | -114.23779 | 14269 ft | 312 kts | 303° |
| 2026-05-06 23:18 | 35.80640 | -114.26126 | 13918 ft | 310 kts | 303° |
| 2026-05-06 23:19 | 35.81659 | -114.28449 | 13576 ft | 306 kts | 303° |
| 2026-05-06 23:19 | 35.82671 | -114.30744 | 13235 ft | 303 kts | 303° |
| 2026-05-06 23:19 | 35.83668 | -114.33006 | 12882 ft | 298 kts | 304° |
| 2026-05-06 23:19 | 35.84782 | -114.35147 | 12406 ft | 297 kts | 311° |
| 2026-05-06 23:20 | 35.86056 | -114.37161 | 12035 ft | 298 kts | 313° |
| 2026-05-06 23:20 | 35.87355 | -114.39158 | 11615 ft | 300 kts | 313° |
| 2026-05-06 23:20 | 35.88652 | -114.41169 | 11302 ft | 299 kts | 312° |
| 2026-05-06 23:20 | 35.89934 | -114.43183 | 10988 ft | 298 kts | 311° |
| 2026-05-06 23:21 | 35.91204 | -114.45198 | 10682 ft | 297 kts | 311° |
| 2026-05-06 23:21 | 35.92461 | -114.47208 | 10371 ft | 294 kts | 311° |
| 2026-05-06 23:21 | 35.93696 | -114.49189 | 10113 ft | 287 kts | 311° |
| 2026-05-06 23:21 | 35.94894 | -114.51115 | 10002 ft | 279 kts | 311° |
| 2026-05-06 23:22 | 35.96071 | -114.53008 | 9928 ft | 276 kts | 311° |
| 2026-05-06 23:22 | 35.97219 | -114.54870 | 9902 ft | 267 kts | 311° |
| 2026-05-06 23:22 | 35.98315 | -114.56654 | 9874 ft | 254 kts | 311° |
| 2026-05-06 23:22 | 35.99418 | -114.58439 | 9272 ft | 267 kts | 311° |
| 2026-05-06 23:23 | 36.00537 | -114.60252 | 8896 ft | 271 kts | 310° |
| 2026-05-06 23:23 | 36.01692 | -114.62128 | 8608 ft | 270 kts | 310° |
| 2026-05-06 23:23 | 36.02811 | -114.63956 | 8455 ft | 262 kts | 310° |
| 2026-05-06 23:23 | 36.03876 | -114.65709 | 8322 ft | 256 kts | 308° |
| 2026-05-06 23:24 | 36.04829 | -114.67566 | 8209 ft | 249 kts | 304° |
| 2026-05-06 23:24 | 36.05692 | -114.69353 | 8114 ft | 242 kts | 304° |
| 2026-05-06 23:24 | 36.06547 | -114.71119 | 8000 ft | 237 kts | 304° |
| 2026-05-06 23:24 | 36.07273 | -114.72922 | 7839 ft | 238 kts | 285° |
| 2026-05-06 23:25 | 36.07357 | -114.74974 | 7622 ft | 239 kts | 272° |
| 2026-05-06 23:25 | 36.07350 | -114.77044 | 7327 ft | 242 kts | 272° |
| 2026-05-06 23:25 | 36.07349 | -114.79132 | 7029 ft | 244 kts | 272° |
| 2026-05-06 23:25 | 36.07349 | -114.81238 | 6757 ft | 247 kts | 272° |
| 2026-05-06 23:26 | 36.07364 | -114.83367 | 6527 ft | 246 kts | 273° |
| 2026-05-06 23:26 | 36.07397 | -114.85455 | 6327 ft | 243 kts | 272° |
| 2026-05-06 23:26 | 36.07405 | -114.87523 | 6021 ft | 240 kts | 271° |
| 2026-05-06 23:26 | 36.07401 | -114.89566 | 5710 ft | 235 kts | 271° |
| 2026-05-06 23:27 | 36.07396 | -114.91539 | 5398 ft | 224 kts | 271° |
| 2026-05-06 23:27 | 36.07390 | -114.93408 | 5123 ft | 211 kts | 271° |
| 2026-05-06 23:27 | 36.07387 | -114.95179 | 4854 ft | 200 kts | 271° |
| 2026-05-06 23:27 | 36.07383 | -114.96855 | 4624 ft | 190 kts | 271° |
| 2026-05-06 23:28 | 36.07380 | -114.98448 | 4387 ft | 181 kts | 271° |
| 2026-05-06 23:28 | 36.07378 | -114.99989 | 4168 ft | 177 kts | 271° |
| 2026-05-06 23:28 | 36.07377 | -115.01497 | 3942 ft | 175 kts | 271° |
| 2026-05-06 23:28 | 36.07375 | -115.03006 | 3741 ft | 174 kts | 270° |
| 2026-05-06 23:29 | 36.07373 | -115.04465 | 3497 ft | 167 kts | 270° |
| 2026-05-06 23:29 | 36.07371 | -115.05868 | 3332 ft | 159 kts | 271° |
| 2026-05-06 23:29 | 36.07370 | -115.07238 | 3096 ft | 159 kts | 271° |
| 2026-05-06 23:29 | 36.07370 | -115.08599 | 2910 ft | 159 kts | 270° |
| 2026-05-06 23:30 | 36.07369 | -115.09959 | 2690 ft | 156 kts | 270° |
| 2026-05-06 23:30 | 36.07371 | -115.11280 | 2442 ft | 152 kts | 269° |
| 2026-05-06 23:30 | 36.07370 | -115.12575 | 2240 ft | 150 kts | 267° |
| 2026-05-06 23:30 | 36.07364 | -115.13791 | 2187 ft | 125 kts | 270° |
| 2026-05-06 23:31 | 36.07365 | -115.14589 | 2189 ft | 64 kts | 271° |
| 2026-05-06 23:31 | 36.07397 | -115.14869 | 2191 ft | 13 kts | 289° |
| 2026-05-06 23:31 | 36.07433 | -115.14969 | 2189 ft | 11 kts | 299° |
| 2026-05-06 23:31 | 36.07443 | -115.14989 | 2189 ft | 2 kts | 300° |
| 2026-05-06 23:32 | 36.07449 | -115.15003 | 2188 ft | 2 kts | 300° |
| 2026-05-06 23:32 | 36.07456 | -115.15018 | 2189 ft | 2 kts | 300° |
| 2026-05-06 23:32 | 36.07476 | -115.15058 | 2189 ft | 10 kts | 304° |
| 2026-05-06 23:32 | 36.07533 | -115.15131 | 2192 ft | 12 kts | 324° |
| 2026-05-06 23:33 | 36.07578 | -115.15162 | 2188 ft | 0 kts | 333° |
| 2026-05-06 23:33 | 36.07598 | -115.15174 | 2189 ft | 7 kts | 333° |
| 2026-05-06 23:33 | 36.07666 | -115.15212 | 2189 ft | 12 kts | 336° |
| 2026-05-06 23:34 | 36.07745 | -115.15257 | 2188 ft | 12 kts | 334° |
| 2026-05-06 23:34 | 36.07822 | -115.15302 | 2189 ft | 12 kts | 342° |
| 2026-05-06 23:34 | 36.07878 | -115.15248 | 2188 ft | 12 kts | 73° |
| 2026-05-06 23:34 | 36.07939 | -115.15202 | 2187 ft | 11 kts | 359° |
| 2026-05-06 23:35 | 36.08017 | -115.15204 | 2189 ft | 11 kts | 359° |
| 2026-05-06 23:35 | 36.08084 | -115.15173 | 2187 ft | 11 kts | 54° |
| 2026-05-06 23:35 | 36.08121 | -115.15100 | 2190 ft | 8 kts | 50° |
| 2026-05-06 23:35 | 36.08158 | -115.15053 | 2187 ft | 6 kts | 46° |
| 2026-05-06 23:36 | 36.08197 | -115.15044 | 2189 ft | 6 kts | 344° |
| 2026-05-06 23:36 | 36.08225 | -115.15057 | 2187 ft | 0 kts | 338° |